Chester-le-Street, United Kingdom
Current Conditions -  °F | °C
As of 12:20 PM on Thursday 30 Oct 2014 (Local Time) from EGNT Reporting Station
Scattered Clouds Scattered Clouds  
Wind Chill: 14°   Ceiling: Unl
Heat Index: 14°   Visibility: 6mi
Dew Point: 13°   Wind: 7mph
Humidity: 94%   Direction: 170°S
Pressure: 29.91"   Gusts: NA
Location:  54.86°N, 1.59°W
Report Text: EGNT 301220Z 17006KT 130V210 9999 SCT018 14/13 Q1013
Loading
Personal Weather Stations






























Interactive Weather Map
Tropical Storm Tracking
New forecast layout! Learn more

10-Day Weather Forecast

Advertisements
Track Severe Weather on mobile